sensor_id;sensor_type;location;lat;lon;timestamp;P1;durP1;ratioP1;P2;durP2;ratioP2
15958;SDS011;8078;47.822;9.402;2023-04-04T00:01:37;5.63;;;5.10;;
15958;SDS011;8078;47.822;9.402;2023-04-04T00:04:03;7.17;;;4.97;;
15958;SDS011;8078;47.822;9.402;2023-04-04T00:06:28;8.03;;;4.67;;
15958;SDS011;8078;47.822;9.402;2023-04-04T00:08:54;6.87;;;5.27;;
15958;SDS011;8078;47.822;9.402;2023-04-04T00:11:19;4.97;;;4.57;;
15958;SDS011;8078;47.822;9.402;2023-04-04T00:13:46;5.63;;;4.93;;
15958;SDS011;8078;47.822;9.402;2023-04-04T00:16:11;6.87;;;4.23;;
15958;SDS011;8078;47.822;9.402;2023-04-04T00:18:37;5.20;;;4.70;;
15958;SDS011;8078;47.822;9.402;2023-04-04T00:21:03;5.87;;;4.90;;
15958;SDS011;8078;47.822;9.402;2023-04-04T00:23:28;7.07;;;4.50;;
15958;SDS011;8078;47.822;9.402;2023-04-04T00:25:54;6.07;;;4.80;;
15958;SDS011;8078;47.822;9.402;2023-04-04T00:28:20;5.70;;;5.10;;
15958;SDS011;8078;47.822;9.402;2023-04-04T00:30:45;8.37;;;4.83;;
15958;SDS011;8078;47.822;9.402;2023-04-04T00:33:12;7.20;;;4.90;;
15958;SDS011;8078;47.822;9.402;2023-04-04T00:35:41;9.13;;;4.53;;
15958;SDS011;8078;47.822;9.402;2023-04-04T00:38:06;5.30;;;4.80;;
15958;SDS011;8078;47.822;9.402;2023-04-04T00:40:53;5.60;;;4.80;;
15958;SDS011;8078;47.822;9.402;2023-04-04T00:43:17;5.60;;;4.30;;
15958;SDS011;8078;47.822;9.402;2023-04-04T00:45:43;6.73;;;5.10;;
15958;SDS011;8078;47.822;9.402;2023-04-04T00:48:09;5.67;;;4.97;;
15958;SDS011;8078;47.822;9.402;2023-04-04T00:50:35;7.70;;;4.43;;
15958;SDS011;8078;47.822;9.402;2023-04-04T00:53:01;9.67;;;5.23;;
15958;SDS011;8078;47.822;9.402;2023-04-04T00:55:27;7.37;;;4.77;;
15958;SDS011;8078;47.822;9.402;2023-04-04T00:57:53;5.33;;;4.53;;
15958;SDS011;8078;47.822;9.402;2023-04-04T01:00:19;8.23;;;5.03;;
15958;SDS011;8078;47.822;9.402;2023-04-04T01:02:45;7.47;;;4.70;;
15958;SDS011;8078;47.822;9.402;2023-04-04T01:05:11;7.13;;;4.20;;
15958;SDS011;8078;47.822;9.402;2023-04-04T01:07:37;5.30;;;4.57;;
15958;SDS011;8078;47.822;9.402;2023-04-04T01:10:04;5.83;;;4.57;;
15958;SDS011;8078;47.822;9.402;2023-04-04T01:12:30;7.73;;;4.80;;
15958;SDS011;8078;47.822;9.402;2023-04-04T01:14:56;6.27;;;4.73;;
15958;SDS011;8078;47.822;9.402;2023-04-04T01:17:22;7.27;;;4.80;;
15958;SDS011;8078;47.822;9.402;2023-04-04T01:19:51;5.47;;;4.60;;
15958;SDS011;8078;47.822;9.402;2023-04-04T01:22:23;6.50;;;4.73;;
15958;SDS011;8078;47.822;9.402;2023-04-04T01:24:51;6.47;;;4.87;;
15958;SDS011;8078;47.822;9.402;2023-04-04T01:27:19;6.23;;;4.80;;
15958;SDS011;8078;47.822;9.402;2023-04-04T01:29:44;4.53;;;4.13;;
15958;SDS011;8078;47.822;9.402;2023-04-04T01:32:20;6.17;;;4.60;;
15958;SDS011;8078;47.822;9.402;2023-04-04T01:34:57;6.40;;;5.03;;
15958;SDS011;8078;47.822;9.402;2023-04-04T01:37:43;5.13;;;4.50;;
15958;SDS011;8078;47.822;9.402;2023-04-04T01:40:27;5.93;;;4.80;;
15958;SDS011;8078;47.822;9.402;2023-04-04T01:43:01;4.90;;;4.43;;
15958;SDS011;8078;47.822;9.402;2023-04-04T01:45:27;7.90;;;5.10;;
15958;SDS011;8078;47.822;9.402;2023-04-04T01:47:56;5.47;;;4.30;;
15958;SDS011;8078;47.822;9.402;2023-04-04T01:50:22;6.77;;;4.70;;
15958;SDS011;8078;47.822;9.402;2023-04-04T01:52:47;4.60;;;4.20;;
15958;SDS011;8078;47.822;9.402;2023-04-04T01:55:14;7.17;;;4.47;;
15958;SDS011;8078;47.822;9.402;2023-04-04T01:57:39;7.50;;;4.87;;
15958;SDS011;8078;47.822;9.402;2023-04-04T02:00:05;5.67;;;4.63;;
15958;SDS011;8078;47.822;9.402;2023-04-04T02:02:31;6.77;;;4.73;;
15958;SDS011;8078;47.822;9.402;2023-04-04T02:04:57;6.33;;;4.87;;
15958;SDS011;8078;47.822;9.402;2023-04-04T02:07:23;9.33;;;4.57;;
15958;SDS011;8078;47.822;9.402;2023-04-04T02:09:48;6.20;;;4.93;;
15958;SDS011;8078;47.822;9.402;2023-04-04T02:12:14;7.13;;;4.97;;
15958;SDS011;8078;47.822;9.402;2023-04-04T02:14:39;6.10;;;4.07;;
15958;SDS011;8078;47.822;9.402;2023-04-04T02:17:05;8.17;;;4.73;;
15958;SDS011;8078;47.822;9.402;2023-04-04T02:19:31;5.53;;;4.90;;
15958;SDS011;8078;47.822;9.402;2023-04-04T02:21:57;7.07;;;4.60;;
15958;SDS011;8078;47.822;9.402;2023-04-04T02:24:23;5.93;;;4.80;;
15958;SDS011;8078;47.822;9.402;2023-04-04T02:26:48;8.17;;;5.17;;
15958;SDS011;8078;47.822;9.402;2023-04-04T02:29:14;8.37;;;4.83;;
15958;SDS011;8078;47.822;9.402;2023-04-04T02:31:40;6.33;;;4.70;;
15958;SDS011;8078;47.822;9.402;2023-04-04T02:34:06;6.27;;;4.70;;
15958;SDS011;8078;47.822;9.402;2023-04-04T02:36:32;6.90;;;4.53;;
15958;SDS011;8078;47.822;9.402;2023-04-04T02:38:57;6.07;;;4.60;;
15958;SDS011;8078;47.822;9.402;2023-04-04T02:41:24;6.80;;;4.70;;
15958;SDS011;8078;47.822;9.402;2023-04-04T02:43:49;7.67;;;4.90;;
15958;SDS011;8078;47.822;9.402;2023-04-04T02:46:15;8.53;;;6.20;;
15958;SDS011;8078;47.822;9.402;2023-04-04T02:48:41;9.03;;;4.60;;
15958;SDS011;8078;47.822;9.402;2023-04-04T02:51:07;7.20;;;4.90;;
15958;SDS011;8078;47.822;9.402;2023-04-04T02:53:33;7.07;;;4.50;;
15958;SDS011;8078;47.822;9.402;2023-04-04T02:56:00;6.37;;;4.87;;
15958;SDS011;8078;47.822;9.402;2023-04-04T02:58:27;6.73;;;4.60;;
15958;SDS011;8078;47.822;9.402;2023-04-04T03:00:55;6.73;;;4.87;;
15958;SDS011;8078;47.822;9.402;2023-04-04T03:03:20;5.87;;;4.83;;
15958;SDS011;8078;47.822;9.402;2023-04-04T03:05:46;6.27;;;5.07;;
15958;SDS011;8078;47.822;9.402;2023-04-04T03:08:13;7.47;;;4.80;;
15958;SDS011;8078;47.822;9.402;2023-04-04T03:10:39;5.33;;;4.63;;
15958;SDS011;8078;47.822;9.402;2023-04-04T03:13:06;7.93;;;5.30;;
15958;SDS011;8078;47.822;9.402;2023-04-04T03:15:32;7.17;;;5.30;;
15958;SDS011;8078;47.822;9.402;2023-04-04T03:17:58;7.93;;;5.30;;
15958;SDS011;8078;47.822;9.402;2023-04-04T03:20:24;7.70;;;5.13;;
15958;SDS011;8078;47.822;9.402;2023-04-04T03:22:50;7.27;;;4.80;;
15958;SDS011;8078;47.822;9.402;2023-04-04T03:25:16;9.53;;;5.10;;
15958;SDS011;8078;47.822;9.402;2023-04-04T03:27:41;15.73;;;5.70;;
15958;SDS011;8078;47.822;9.402;2023-04-04T03:30:07;5.67;;;4.57;;
15958;SDS011;8078;47.822;9.402;2023-04-04T03:32:34;6.47;;;5.20;;
15958;SDS011;8078;47.822;9.402;2023-04-04T03:35:01;5.70;;;5.10;;
15958;SDS011;8078;47.822;9.402;2023-04-04T03:37:28;5.83;;;5.30;;
15958;SDS011;8078;47.822;9.402;2023-04-04T03:39:54;8.37;;;4.90;;
15958;SDS011;8078;47.822;9.402;2023-04-04T03:42:19;6.07;;;4.60;;
15958;SDS011;8078;47.822;9.402;2023-04-04T03:44:45;6.23;;;4.93;;
15958;SDS011;8078;47.822;9.402;2023-04-04T03:47:12;5.53;;;4.97;;
15958;SDS011;8078;47.822;9.402;2023-04-04T03:49:38;9.00;;;4.97;;
15958;SDS011;8078;47.822;9.402;2023-04-04T03:52:03;7.00;;;4.90;;
15958;SDS011;8078;47.822;9.402;2023-04-04T03:54:29;7.93;;;5.43;;
15958;SDS011;8078;47.822;9.402;2023-04-04T03:56:55;5.80;;;4.97;;
15958;SDS011;8078;47.822;9.402;2023-04-04T03:59:21;6.97;;;5.40;;
15958;SDS011;8078;47.822;9.402;2023-04-04T04:01:46;6.10;;;4.93;;
15958;SDS011;8078;47.822;9.402;2023-04-04T04:04:12;5.97;;;5.37;;
15958;SDS011;8078;47.822;9.402;2023-04-04T04:06:38;7.20;;;5.80;;
15958;SDS011;8078;47.822;9.402;2023-04-04T04:09:03;6.67;;;5.40;;
15958;SDS011;8078;47.822;9.402;2023-04-04T04:11:29;6.47;;;5.40;;
15958;SDS011;8078;47.822;9.402;2023-04-04T04:13:54;8.67;;;5.77;;
15958;SDS011;8078;47.822;9.402;2023-04-04T04:16:20;8.80;;;4.97;;
15958;SDS011;8078;47.822;9.402;2023-04-04T04:18:46;7.17;;;5.53;;
15958;SDS011;8078;47.822;9.402;2023-04-04T04:21:12;7.33;;;5.83;;
15958;SDS011;8078;47.822;9.402;2023-04-04T04:23:37;8.10;;;5.93;;
15958;SDS011;8078;47.822;9.402;2023-04-04T04:26:03;6.73;;;5.10;;
15958;SDS011;8078;47.822;9.402;2023-04-04T04:28:29;6.90;;;4.80;;
15958;SDS011;8078;47.822;9.402;2023-04-04T04:30:54;6.73;;;5.27;;
15958;SDS011;8078;47.822;9.402;2023-04-04T04:33:26;7.13;;;5.07;;
15958;SDS011;8078;47.822;9.402;2023-04-04T04:36:02;7.03;;;5.10;;
15958;SDS011;8078;47.822;9.402;2023-04-04T04:38:28;5.47;;;4.73;;
15958;SDS011;8078;47.822;9.402;2023-04-04T04:40:55;7.47;;;6.17;;
15958;SDS011;8078;47.822;9.402;2023-04-04T04:43:20;6.53;;;5.33;;
15958;SDS011;8078;47.822;9.402;2023-04-04T04:45:46;7.17;;;5.20;;
15958;SDS011;8078;47.822;9.402;2023-04-04T04:48:12;6.33;;;5.10;;
15958;SDS011;8078;47.822;9.402;2023-04-04T04:50:38;7.60;;;5.27;;
15958;SDS011;8078;47.822;9.402;2023-04-04T04:53:03;8.10;;;5.40;;
15958;SDS011;8078;47.822;9.402;2023-04-04T04:55:29;7.17;;;4.90;;
15958;SDS011;8078;47.822;9.402;2023-04-04T04:57:54;9.63;;;4.87;;
15958;SDS011;8078;47.822;9.402;2023-04-04T05:00:20;8.17;;;5.20;;
15958;SDS011;8078;47.822;9.402;2023-04-04T05:02:47;6.27;;;5.47;;
15958;SDS011;8078;47.822;9.402;2023-04-04T05:05:13;6.90;;;5.70;;
15958;SDS011;8078;47.822;9.402;2023-04-04T05:07:43;5.90;;;5.30;;
15958;SDS011;8078;47.822;9.402;2023-04-04T05:10:10;10.53;;;5.90;;
15958;SDS011;8078;47.822;9.402;2023-04-04T05:12:36;8.67;;;5.73;;
15958;SDS011;8078;47.822;9.402;2023-04-04T05:15:07;6.53;;;5.60;;
15958;SDS011;8078;47.822;9.402;2023-04-04T05:17:36;8.00;;;6.00;;
15958;SDS011;8078;47.822;9.402;2023-04-04T05:20:05;8.20;;;5.30;;
15958;SDS011;8078;47.822;9.402;2023-04-04T05:22:31;6.77;;;5.00;;
15958;SDS011;8078;47.822;9.402;2023-04-04T05:24:57;6.93;;;5.73;;
15958;SDS011;8078;47.822;9.402;2023-04-04T05:27:23;8.70;;;5.43;;
15958;SDS011;8078;47.822;9.402;2023-04-04T05:29:48;9.83;;;5.47;;
15958;SDS011;8078;47.822;9.402;2023-04-04T05:32:14;7.93;;;5.80;;
15958;SDS011;8078;47.822;9.402;2023-04-04T05:34:40;7.83;;;5.73;;
15958;SDS011;8078;47.822;9.402;2023-04-04T05:37:05;9.77;;;5.93;;
15958;SDS011;8078;47.822;9.402;2023-04-04T05:39:31;8.10;;;5.77;;
15958;SDS011;8078;47.822;9.402;2023-04-04T05:41:57;6.43;;;4.97;;
15958;SDS011;8078;47.822;9.402;2023-04-04T05:44:23;7.27;;;5.33;;
15958;SDS011;8078;47.822;9.402;2023-04-04T05:46:48;7.67;;;5.60;;
15958;SDS011;8078;47.822;9.402;2023-04-04T05:49:14;6.20;;;5.00;;
15958;SDS011;8078;47.822;9.402;2023-04-04T05:51:39;11.27;;;5.63;;
15958;SDS011;8078;47.822;9.402;2023-04-04T05:54:05;7.60;;;5.67;;
15958;SDS011;8078;47.822;9.402;2023-04-04T05:56:31;5.73;;;4.73;;
15958;SDS011;8078;47.822;9.402;2023-04-04T05:58:57;8.57;;;5.30;;
15958;SDS011;8078;47.822;9.402;2023-04-04T06:01:23;5.17;;;4.67;;
15958;SDS011;8078;47.822;9.402;2023-04-04T06:03:49;6.90;;;5.27;;
15958;SDS011;8078;47.822;9.402;2023-04-04T06:06:15;7.07;;;4.97;;
15958;SDS011;8078;47.822;9.402;2023-04-04T06:08:41;5.90;;;5.00;;
15958;SDS011;8078;47.822;9.402;2023-04-04T06:11:06;8.93;;;4.90;;
15958;SDS011;8078;47.822;9.402;2023-04-04T06:13:32;10.67;;;5.43;;
15958;SDS011;8078;47.822;9.402;2023-04-04T06:15:58;6.00;;;5.17;;
15958;SDS011;8078;47.822;9.402;2023-04-04T06:18:23;6.90;;;5.47;;
15958;SDS011;8078;47.822;9.402;2023-04-04T06:20:49;8.77;;;5.20;;
15958;SDS011;8078;47.822;9.402;2023-04-04T06:23:14;9.67;;;5.53;;
15958;SDS011;8078;47.822;9.402;2023-04-04T06:25:40;8.20;;;5.20;;
15958;SDS011;8078;47.822;9.402;2023-04-04T06:28:05;8.87;;;5.60;;
15958;SDS011;8078;47.822;9.402;2023-04-04T06:30:34;11.60;;;5.50;;
15958;SDS011;8078;47.822;9.402;2023-04-04T06:33:01;7.00;;;5.37;;
15958;SDS011;8078;47.822;9.402;2023-04-04T06:35:27;8.27;;;5.63;;
15958;SDS011;8078;47.822;9.402;2023-04-04T06:37:53;6.63;;;5.60;;
15958;SDS011;8078;47.822;9.402;2023-04-04T06:40:20;6.47;;;5.40;;
15958;SDS011;8078;47.822;9.402;2023-04-04T06:42:46;7.53;;;5.20;;
15958;SDS011;8078;47.822;9.402;2023-04-04T06:45:16;7.97;;;5.43;;
15958;SDS011;8078;47.822;9.402;2023-04-04T06:47:42;8.63;;;5.40;;
15958;SDS011;8078;47.822;9.402;2023-04-04T06:50:08;7.37;;;5.57;;
15958;SDS011;8078;47.822;9.402;2023-04-04T06:52:34;8.77;;;4.97;;
15958;SDS011;8078;47.822;9.402;2023-04-04T06:55:00;7.30;;;5.20;;
15958;SDS011;8078;47.822;9.402;2023-04-04T06:57:26;9.47;;;5.77;;
15958;SDS011;8078;47.822;9.402;2023-04-04T06:59:51;7.80;;;5.23;;
15958;SDS011;8078;47.822;9.402;2023-04-04T07:02:17;8.80;;;5.20;;
15958;SDS011;8078;47.822;9.402;2023-04-04T07:04:43;7.83;;;5.20;;
15958;SDS011;8078;47.822;9.402;2023-04-04T07:07:08;7.23;;;5.00;;
15958;SDS011;8078;47.822;9.402;2023-04-04T07:09:35;7.10;;;5.50;;
15958;SDS011;8078;47.822;9.402;2023-04-04T07:12:01;6.03;;;5.20;;
15958;SDS011;8078;47.822;9.402;2023-04-04T07:14:26;7.23;;;5.37;;
15958;SDS011;8078;47.822;9.402;2023-04-04T07:16:52;7.57;;;5.37;;
15958;SDS011;8078;47.822;9.402;2023-04-04T07:19:17;9.57;;;5.20;;
15958;SDS011;8078;47.822;9.402;2023-04-04T07:21:43;6.97;;;4.87;;
15958;SDS011;8078;47.822;9.402;2023-04-04T07:24:08;6.23;;;5.20;;
15958;SDS011;8078;47.822;9.402;2023-04-04T07:26:34;8.00;;;5.30;;
15958;SDS011;8078;47.822;9.402;2023-04-04T07:29:00;10.43;;;5.07;;
15958;SDS011;8078;47.822;9.402;2023-04-04T07:31:25;7.70;;;5.53;;
15958;SDS011;8078;47.822;9.402;2023-04-04T07:33:51;8.27;;;5.73;;
15958;SDS011;8078;47.822;9.402;2023-04-04T07:36:20;5.77;;;5.10;;
15958;SDS011;8078;47.822;9.402;2023-04-04T07:38:45;6.20;;;4.93;;
15958;SDS011;8078;47.822;9.402;2023-04-04T07:41:11;6.53;;;5.20;;
15958;SDS011;8078;47.822;9.402;2023-04-04T07:43:36;6.77;;;5.40;;
15958;SDS011;8078;47.822;9.402;2023-04-04T07:46:02;5.43;;;4.57;;
15958;SDS011;8078;47.822;9.402;2023-04-04T07:48:28;8.23;;;4.67;;
15958;SDS011;8078;47.822;9.402;2023-04-04T07:50:53;6.07;;;4.87;;
15958;SDS011;8078;47.822;9.402;2023-04-04T07:53:19;9.67;;;4.80;;
15958;SDS011;8078;47.822;9.402;2023-04-04T07:55:44;6.40;;;5.50;;
15958;SDS011;8078;47.822;9.402;2023-04-04T07:58:10;5.43;;;4.73;;
15958;SDS011;8078;47.822;9.402;2023-04-04T08:00:35;13.03;;;4.80;;
15958;SDS011;8078;47.822;9.402;2023-04-04T08:03:01;5.10;;;4.60;;
15958;SDS011;8078;47.822;9.402;2023-04-04T08:05:27;4.57;;;4.17;;
15958;SDS011;8078;47.822;9.402;2023-04-04T08:07:52;5.73;;;5.00;;
15958;SDS011;8078;47.822;9.402;2023-04-04T08:10:18;6.70;;;4.50;;
15958;SDS011;8078;47.822;9.402;2023-04-04T08:12:45;7.40;;;5.20;;
15958;SDS011;8078;47.822;9.402;2023-04-04T08:15:12;5.63;;;4.57;;
15958;SDS011;8078;47.822;9.402;2023-04-04T08:17:37;6.73;;;4.03;;
15958;SDS011;8078;47.822;9.402;2023-04-04T08:20:03;4.53;;;4.07;;
15958;SDS011;8078;47.822;9.402;2023-04-04T08:22:29;6.60;;;4.83;;
15958;SDS011;8078;47.822;9.402;2023-04-04T08:24:55;7.83;;;4.30;;
15958;SDS011;8078;47.822;9.402;2023-04-04T08:27:21;4.23;;;3.83;;
15958;SDS011;8078;47.822;9.402;2023-04-04T08:29:46;7.07;;;4.57;;
15958;SDS011;8078;47.822;9.402;2023-04-04T08:32:15;4.70;;;4.03;;
15958;SDS011;8078;47.822;9.402;2023-04-04T08:34:41;4.40;;;4.00;;
15958;SDS011;8078;47.822;9.402;2023-04-04T08:37:07;4.70;;;4.17;;
15958;SDS011;8078;47.822;9.402;2023-04-04T08:39:33;6.67;;;4.27;;
15958;SDS011;8078;47.822;9.402;2023-04-04T08:42:02;6.50;;;4.33;;
15958;SDS011;8078;47.822;9.402;2023-04-04T08:44:30;4.47;;;4.03;;
15958;SDS011;8078;47.822;9.402;2023-04-04T08:47:01;4.07;;;3.70;;
15958;SDS011;8078;47.822;9.402;2023-04-04T08:49:34;5.00;;;4.20;;
15958;SDS011;8078;47.822;9.402;2023-04-04T08:52:02;5.77;;;4.13;;
15958;SDS011;8078;47.822;9.402;2023-04-04T08:54:30;6.43;;;4.20;;
15958;SDS011;8078;47.822;9.402;2023-04-04T08:56:58;4.53;;;4.07;;
15958;SDS011;8078;47.822;9.402;2023-04-04T08:59:24;6.63;;;4.37;;
15958;SDS011;8078;47.822;9.402;2023-04-04T09:01:53;6.87;;;3.77;;
15958;SDS011;8078;47.822;9.402;2023-04-04T09:04:29;5.07;;;4.03;;
15958;SDS011;8078;47.822;9.402;2023-04-04T09:06:56;6.10;;;4.20;;
15958;SDS011;8078;47.822;9.402;2023-04-04T09:09:23;6.47;;;4.60;;
15958;SDS011;8078;47.822;9.402;2023-04-04T09:11:49;6.13;;;4.17;;
15958;SDS011;8078;47.822;9.402;2023-04-04T09:14:16;4.70;;;3.60;;
15958;SDS011;8078;47.822;9.402;2023-04-04T09:16:44;4.50;;;4.10;;
15958;SDS011;8078;47.822;9.402;2023-04-04T09:19:10;7.53;;;5.00;;
15958;SDS011;8078;47.822;9.402;2023-04-04T09:21:36;5.20;;;3.70;;
15958;SDS011;8078;47.822;9.402;2023-04-04T09:24:01;5.53;;;3.73;;
15958;SDS011;8078;47.822;9.402;2023-04-04T09:26:28;7.30;;;3.87;;
15958;SDS011;8078;47.822;9.402;2023-04-04T09:29:10;4.37;;;3.97;;
15958;SDS011;8078;47.822;9.402;2023-04-04T09:31:35;4.27;;;3.73;;
15958;SDS011;8078;47.822;9.402;2023-04-04T09:34:01;4.43;;;3.83;;
15958;SDS011;8078;47.822;9.402;2023-04-04T09:36:27;7.77;;;4.00;;
15958;SDS011;8078;47.822;9.402;2023-04-04T09:38:52;6.30;;;4.17;;
15958;SDS011;8078;47.822;9.402;2023-04-04T09:41:18;4.70;;;4.20;;
15958;SDS011;8078;47.822;9.402;2023-04-04T09:43:44;4.93;;;4.10;;
15958;SDS011;8078;47.822;9.402;2023-04-04T09:46:10;4.50;;;4.03;;
15958;SDS011;8078;47.822;9.402;2023-04-04T09:48:36;6.60;;;4.13;;
15958;SDS011;8078;47.822;9.402;2023-04-04T09:51:05;4.20;;;3.67;;
15958;SDS011;8078;47.822;9.402;2023-04-04T09:53:35;5.67;;;3.93;;
15958;SDS011;8078;47.822;9.402;2023-04-04T09:56:02;5.20;;;4.33;;
15958;SDS011;8078;47.822;9.402;2023-04-04T09:58:28;5.07;;;4.23;;
15958;SDS011;8078;47.822;9.402;2023-04-04T10:00:57;4.07;;;3.67;;
15958;SDS011;8078;47.822;9.402;2023-04-04T10:03:25;5.73;;;4.03;;
15958;SDS011;8078;47.822;9.402;2023-04-04T10:08:24;7.03;;;4.17;;
15958;SDS011;8078;47.822;9.402;2023-04-04T10:10:55;5.83;;;3.77;;
15958;SDS011;8078;47.822;9.402;2023-04-04T10:13:24;4.23;;;3.83;;
15958;SDS011;8078;47.822;9.402;2023-04-04T10:15:52;4.60;;;4.07;;
15958;SDS011;8078;47.822;9.402;2023-04-04T10:18:25;6.13;;;4.20;;
15958;SDS011;8078;47.822;9.402;2023-04-04T10:20:57;4.90;;;3.83;;
15958;SDS011;8078;47.822;9.402;2023-04-04T10:23:24;4.20;;;3.80;;
15958;SDS011;8078;47.822;9.402;2023-04-04T10:25:54;4.30;;;3.90;;
15958;SDS011;8078;47.822;9.402;2023-04-04T10:28:22;6.10;;;4.30;;
15958;SDS011;8078;47.822;9.402;2023-04-04T10:33:47;5.63;;;4.00;;
15958;SDS011;8078;47.822;9.402;2023-04-04T10:36:57;4.70;;;3.67;;
15958;SDS011;8078;47.822;9.402;2023-04-04T10:42:05;4.87;;;4.37;;
15958;SDS011;8078;47.822;9.402;2023-04-04T10:44:32;5.40;;;4.27;;
15958;SDS011;8078;47.822;9.402;2023-04-04T10:47:05;5.97;;;4.47;;
15958;SDS011;8078;47.822;9.402;2023-04-04T10:49:40;5.30;;;4.80;;
15958;SDS011;8078;47.822;9.402;2023-04-04T10:52:13;5.40;;;4.30;;
15958;SDS011;8078;47.822;9.402;2023-04-04T10:54:42;5.20;;;4.00;;
15958;SDS011;8078;47.822;9.402;2023-04-04T10:57:09;5.33;;;4.27;;
15958;SDS011;8078;47.822;9.402;2023-04-04T11:05:32;5.20;;;3.60;;
15958;SDS011;8078;47.822;9.402;2023-04-04T11:08:06;6.10;;;4.63;;
15958;SDS011;8078;47.822;9.402;2023-04-04T11:10:52;5.60;;;4.70;;
15958;SDS011;8078;47.822;9.402;2023-04-04T11:13:19;5.17;;;4.50;;
15958;SDS011;8078;47.822;9.402;2023-04-04T11:20:56;4.97;;;4.43;;
15958;SDS011;8078;47.822;9.402;2023-04-04T11:23:25;4.53;;;4.13;;
15958;SDS011;8078;47.822;9.402;2023-04-04T11:25:57;6.97;;;4.30;;
15958;SDS011;8078;47.822;9.402;2023-04-04T11:28:25;5.37;;;4.13;;
15958;SDS011;8078;47.822;9.402;2023-04-04T11:39:02;4.60;;;4.17;;
15958;SDS011;8078;47.822;9.402;2023-04-04T11:44:19;4.90;;;4.27;;
15958;SDS011;8078;47.822;9.402;2023-04-04T11:46:46;6.43;;;5.10;;
15958;SDS011;8078;47.822;9.402;2023-04-04T11:49:12;5.87;;;4.30;;
15958;SDS011;8078;47.822;9.402;2023-04-04T11:51:39;4.70;;;4.20;;
15958;SDS011;8078;47.822;9.402;2023-04-04T11:54:14;7.83;;;4.87;;
15958;SDS011;8078;47.822;9.402;2023-04-04T11:56:41;4.63;;;4.20;;
15958;SDS011;8078;47.822;9.402;2023-04-04T11:59:20;7.40;;;4.93;;
15958;SDS011;8078;47.822;9.402;2023-04-04T12:01:46;4.90;;;4.40;;
15958;SDS011;8078;47.822;9.402;2023-04-04T12:04:15;6.10;;;4.70;;
15958;SDS011;8078;47.822;9.402;2023-04-04T12:06:42;7.20;;;4.87;;
15958;SDS011;8078;47.822;9.402;2023-04-04T12:09:08;6.30;;;4.60;;
15958;SDS011;8078;47.822;9.402;2023-04-04T12:11:36;6.93;;;5.20;;
15958;SDS011;8078;47.822;9.402;2023-04-04T12:14:02;5.03;;;4.20;;
15958;SDS011;8078;47.822;9.402;2023-04-04T12:16:28;4.57;;;4.13;;
15958;SDS011;8078;47.822;9.402;2023-04-04T12:18:55;5.63;;;4.63;;
15958;SDS011;8078;47.822;9.402;2023-04-04T12:21:25;5.60;;;4.43;;
15958;SDS011;8078;47.822;9.402;2023-04-04T12:23:50;6.33;;;4.37;;
15958;SDS011;8078;47.822;9.402;2023-04-04T12:26:16;6.17;;;4.77;;
15958;SDS011;8078;47.822;9.402;2023-04-04T12:28:43;6.03;;;4.50;;
15958;SDS011;8078;47.822;9.402;2023-04-04T12:31:09;5.33;;;4.73;;
15958;SDS011;8078;47.822;9.402;2023-04-04T12:33:37;4.80;;;4.30;;
15958;SDS011;8078;47.822;9.402;2023-04-04T12:36:04;4.90;;;4.37;;
15958;SDS011;8078;47.822;9.402;2023-04-04T12:38:33;9.13;;;5.20;;
15958;SDS011;8078;47.822;9.402;2023-04-04T12:41:03;6.77;;;5.00;;
15958;SDS011;8078;47.822;9.402;2023-04-04T12:43:33;7.97;;;4.80;;
15958;SDS011;8078;47.822;9.402;2023-04-04T12:46:05;6.40;;;5.00;;
15958;SDS011;8078;47.822;9.402;2023-04-04T12:48:32;5.57;;;5.07;;
15958;SDS011;8078;47.822;9.402;2023-04-04T12:51:00;6.50;;;4.93;;
15958;SDS011;8078;47.822;9.402;2023-04-04T12:53:26;4.87;;;4.37;;
15958;SDS011;8078;47.822;9.402;2023-04-04T12:55:53;9.03;;;5.10;;
15958;SDS011;8078;47.822;9.402;2023-04-04T12:58:22;8.67;;;5.33;;
15958;SDS011;8078;47.822;9.402;2023-04-04T13:00:50;4.93;;;4.53;;
15958;SDS011;8078;47.822;9.402;2023-04-04T13:03:18;6.43;;;4.90;;
15958;SDS011;8078;47.822;9.402;2023-04-04T13:05:46;7.10;;;5.27;;
15958;SDS011;8078;47.822;9.402;2023-04-04T13:08:12;5.83;;;4.50;;
15958;SDS011;8078;47.822;9.402;2023-04-04T13:10:55;5.23;;;4.73;;
15958;SDS011;8078;47.822;9.402;2023-04-04T13:13:34;5.67;;;5.07;;
15958;SDS011;8078;47.822;9.402;2023-04-04T13:16:05;6.50;;;4.70;;
15958;SDS011;8078;47.822;9.402;2023-04-04T13:18:36;5.17;;;4.67;;
15958;SDS011;8078;47.822;9.402;2023-04-04T13:21:05;5.33;;;4.70;;
15958;SDS011;8078;47.822;9.402;2023-04-04T13:23:32;5.80;;;4.50;;
15958;SDS011;8078;47.822;9.402;2023-04-04T13:25:59;6.47;;;4.90;;
15958;SDS011;8078;47.822;9.402;2023-04-04T13:28:25;5.30;;;4.70;;
15958;SDS011;8078;47.822;9.402;2023-04-04T13:30:51;5.23;;;4.60;;
15958;SDS011;8078;47.822;9.402;2023-04-04T13:33:17;6.30;;;4.80;;
15958;SDS011;8078;47.822;9.402;2023-04-04T13:35:43;8.37;;;5.27;;
15958;SDS011;8078;47.822;9.402;2023-04-04T13:38:10;5.97;;;5.07;;
15958;SDS011;8078;47.822;9.402;2023-04-04T13:40:36;7.10;;;4.90;;
15958;SDS011;8078;47.822;9.402;2023-04-04T13:43:02;9.87;;;4.93;;
15958;SDS011;8078;47.822;9.402;2023-04-04T13:45:28;5.50;;;4.87;;
15958;SDS011;8078;47.822;9.402;2023-04-04T13:47:56;5.80;;;5.00;;
15958;SDS011;8078;47.822;9.402;2023-04-04T13:50:21;5.87;;;4.53;;
15958;SDS011;8078;47.822;9.402;2023-04-04T13:52:47;6.10;;;4.60;;
15958;SDS011;8078;47.822;9.402;2023-04-04T13:55:13;5.33;;;4.83;;
15958;SDS011;8078;47.822;9.402;2023-04-04T13:57:38;6.20;;;5.00;;
15958;SDS011;8078;47.822;9.402;2023-04-04T14:00:04;5.43;;;4.80;;
15958;SDS011;8078;47.822;9.402;2023-04-04T14:02:30;6.13;;;4.93;;
15958;SDS011;8078;47.822;9.402;2023-04-04T14:04:55;6.37;;;4.20;;
15958;SDS011;8078;47.822;9.402;2023-04-04T14:07:21;7.60;;;4.87;;
15958;SDS011;8078;47.822;9.402;2023-04-04T14:09:46;5.17;;;4.03;;
15958;SDS011;8078;47.822;9.402;2023-04-04T14:12:12;4.97;;;4.47;;
15958;SDS011;8078;47.822;9.402;2023-04-04T14:14:37;5.57;;;4.17;;
15958;SDS011;8078;47.822;9.402;2023-04-04T14:17:04;4.93;;;4.40;;
15958;SDS011;8078;47.822;9.402;2023-04-04T14:19:31;7.53;;;5.07;;
15958;SDS011;8078;47.822;9.402;2023-04-04T14:21:56;6.50;;;4.67;;
15958;SDS011;8078;47.822;9.402;2023-04-04T14:24:22;9.80;;;5.10;;
15958;SDS011;8078;47.822;9.402;2023-04-04T14:26:48;6.30;;;4.80;;
15958;SDS011;8078;47.822;9.402;2023-04-04T14:29:13;4.97;;;4.47;;
15958;SDS011;8078;47.822;9.402;2023-04-04T14:31:39;5.20;;;4.60;;
15958;SDS011;8078;47.822;9.402;2023-04-04T14:34:05;5.93;;;4.50;;
15958;SDS011;8078;47.822;9.402;2023-04-04T14:36:31;5.57;;;5.00;;
15958;SDS011;8078;47.822;9.402;2023-04-04T14:38:56;5.63;;;4.87;;
15958;SDS011;8078;47.822;9.402;2023-04-04T14:41:22;5.67;;;4.70;;
15958;SDS011;8078;47.822;9.402;2023-04-04T14:43:48;6.63;;;4.83;;
15958;SDS011;8078;47.822;9.402;2023-04-04T14:46:13;6.13;;;4.30;;
15958;SDS011;8078;47.822;9.402;2023-04-04T14:48:39;5.53;;;4.53;;
15958;SDS011;8078;47.822;9.402;2023-04-04T14:51:05;5.10;;;4.47;;
15958;SDS011;8078;47.822;9.402;2023-04-04T14:53:30;4.70;;;4.30;;
15958;SDS011;8078;47.822;9.402;2023-04-04T14:55:56;7.20;;;4.60;;
15958;SDS011;8078;47.822;9.402;2023-04-04T14:58:22;8.07;;;4.80;;
15958;SDS011;8078;47.822;9.402;2023-04-04T15:00:47;5.30;;;4.73;;
15958;SDS011;8078;47.822;9.402;2023-04-04T15:03:13;5.67;;;4.53;;
15958;SDS011;8078;47.822;9.402;2023-04-04T15:05:39;6.07;;;4.43;;
15958;SDS011;8078;47.822;9.402;2023-04-04T15:08:05;6.57;;;4.43;;
15958;SDS011;8078;47.822;9.402;2023-04-04T15:10:31;5.30;;;4.60;;
15958;SDS011;8078;47.822;9.402;2023-04-04T15:12:56;5.40;;;4.90;;
15958;SDS011;8078;47.822;9.402;2023-04-04T15:15:22;5.60;;;4.60;;
15958;SDS011;8078;47.822;9.402;2023-04-04T15:17:47;7.20;;;4.93;;
15958;SDS011;8078;47.822;9.402;2023-04-04T15:20:13;5.57;;;4.67;;
15958;SDS011;8078;47.822;9.402;2023-04-04T15:22:39;5.10;;;4.60;;
15958;SDS011;8078;47.822;9.402;2023-04-04T15:25:06;6.27;;;4.50;;
15958;SDS011;8078;47.822;9.402;2023-04-04T15:27:32;5.43;;;4.57;;
15958;SDS011;8078;47.822;9.402;2023-04-04T15:29:58;5.63;;;4.37;;